createdAt,value
2019-03-19T00:00:42.876Z,86.11
2019-03-19T00:03:09.187Z,86.45
2019-03-19T00:05:35.493Z,86.85
2019-03-19T00:08:01.812Z,87.12
2019-03-19T00:10:28.126Z,87.31
2019-03-19T00:12:54.425Z,87.60
2019-03-19T00:15:20.733Z,87.84
2019-03-19T00:17:47.037Z,88.03
2019-03-19T00:20:13.378Z,88.23
2019-03-19T00:22:39.683Z,88.40
2019-03-19T00:25:05.992Z,88.85
2019-03-19T00:27:32.300Z,89.11
2019-03-19T00:29:58.604Z,89.35
2019-03-19T00:32:24.930Z,89.65
2019-03-19T00:34:51.281Z,89.89
2019-03-19T00:37:17.589Z,90.13
2019-03-19T00:39:43.898Z,90.55
2019-03-19T00:42:10.206Z,90.88
2019-03-19T00:44:36.509Z,91.22
2019-03-19T00:47:02.838Z,91.45
2019-03-19T00:49:29.156Z,91.65
2019-03-19T00:51:55.471Z,91.84
2019-03-19T00:54:21.793Z,92.12
2019-03-19T00:56:48.093Z,92.27
2019-03-19T00:59:14.412Z,92.33
2019-03-19T01:01:40.722Z,92.82
2019-03-19T01:04:07.031Z,93.17
2019-03-19T01:06:33.342Z,93.33
2019-03-19T01:08:59.652Z,93.49
2019-03-19T01:11:25.966Z,93.55
2019-03-19T01:13:52.316Z,93.92
2019-03-19T01:16:18.609Z,94.08
2019-03-19T01:18:44.915Z,94.37
2019-03-19T01:21:11.231Z,94.33
2019-03-19T01:23:37.541Z,94.44
2019-03-19T01:26:03.854Z,94.45
2019-03-19T01:28:30.158Z,94.61
2019-03-19T01:30:56.472Z,94.76
2019-03-19T01:33:22.774Z,94.73
2019-03-19T01:35:49.081Z,94.96
2019-03-19T01:38:15.394Z,95.25
2019-03-19T01:40:41.765Z,95.28
2019-03-19T01:43:08.070Z,95.18
2019-03-19T01:45:34.379Z,95.17
2019-03-19T01:48:00.693Z,95.28
2019-03-19T01:50:26.997Z,95.41
2019-03-19T01:52:53.308Z,95.44
2019-03-19T01:55:19.609Z,95.55
2019-03-19T01:57:45.922Z,95.62
2019-03-19T02:00:12.232Z,95.61
2019-03-19T02:02:38.542Z,95.60
2019-03-19T02:05:04.849Z,95.58
2019-03-19T02:07:31.160Z,95.54
2019-03-19T02:09:57.471Z,95.67
2019-03-19T02:12:23.779Z,95.78
2019-03-19T02:14:50.088Z,95.80
2019-03-19T02:17:16.394Z,95.99
2019-03-19T02:19:42.709Z,96.12
2019-03-19T02:22:09.020Z,96.21
2019-03-19T02:24:35.354Z,96.41
2019-03-19T02:27:01.667Z,96.45
2019-03-19T02:29:27.989Z,96.48
2019-03-19T02:31:54.298Z,96.58
2019-03-19T02:34:20.608Z,96.56
2019-03-19T02:36:46.921Z,96.66
2019-03-19T02:39:13.219Z,96.80
2019-03-19T02:41:39.522Z,96.90
2019-03-19T02:44:05.828Z,97.01
2019-03-19T02:46:32.148Z,96.97
2019-03-19T02:48:58.456Z,96.88
2019-03-19T02:51:24.764Z,96.89
2019-03-19T02:53:51.114Z,96.82
2019-03-19T02:56:31.811Z,96.79
2019-03-19T02:58:43.784Z,96.61
2019-03-19T03:01:10.066Z,96.55
2019-03-19T03:03:36.381Z,96.51
2019-03-19T03:06:02.692Z,96.39
2019-03-19T03:08:29.001Z,96.20
2019-03-19T03:10:55.306Z,96.24
2019-03-19T03:13:21.622Z,96.09
2019-03-19T03:15:47.937Z,96.10
2019-03-19T03:18:14.271Z,96.01
2019-03-19T03:20:40.571Z,96.07
2019-03-19T03:23:06.881Z,96.00
2019-03-19T03:25:33.193Z,95.92
2019-03-19T03:27:59.506Z,95.78
2019-03-19T03:30:25.818Z,95.93
2019-03-19T03:32:52.146Z,95.81
2019-03-19T03:35:18.478Z,95.84
2019-03-19T03:37:44.749Z,95.77
2019-03-19T03:40:11.052Z,95.83
2019-03-19T03:42:37.366Z,95.72
2019-03-19T03:45:03.682Z,95.78
2019-03-19T03:47:29.986Z,95.72
2019-03-19T03:49:56.297Z,95.63
2019-03-19T03:52:22.612Z,95.63
2019-03-19T03:54:48.915Z,95.50
2019-03-19T03:57:15.226Z,95.54
2019-03-19T03:59:41.539Z,95.48
2019-03-19T04:02:07.850Z,95.42
2019-03-19T04:04:34.179Z,95.42
2019-03-19T04:07:00.485Z,95.32
2019-03-19T04:09:26.801Z,95.38
2019-03-19T04:11:53.117Z,95.37
2019-03-19T04:14:19.427Z,95.32
2019-03-19T04:16:45.775Z,95.21
2019-03-19T04:19:12.079Z,95.09
2019-03-19T04:21:38.387Z,95.09
2019-03-19T04:24:04.697Z,95.04
2019-03-19T04:26:31.028Z,95.05
2019-03-19T04:28:57.342Z,94.88
2019-03-19T04:31:23.651Z,94.82
2019-03-19T04:33:49.953Z,94.79
2019-03-19T04:36:16.259Z,94.74
2019-03-19T04:38:42.582Z,94.70
2019-03-19T04:41:08.885Z,94.77
2019-03-19T04:43:35.194Z,94.79
2019-03-19T04:46:01.499Z,94.81
2019-03-19T04:48:27.819Z,94.95
2019-03-19T04:50:54.123Z,95.02
2019-03-19T04:53:20.440Z,95.21
2019-03-19T04:55:46.750Z,95.35
2019-03-19T04:58:13.060Z,95.50
2019-03-19T05:00:39.394Z,95.85
2019-03-19T05:03:05.701Z,96.07
2019-03-19T05:05:32.004Z,96.34
2019-03-19T05:07:58.312Z,96.82
2019-03-19T05:10:24.622Z,97.32
2019-03-19T05:12:50.950Z,97.75
2019-03-19T05:15:17.260Z,98.46
2019-03-19T05:17:43.568Z,99.46
2019-03-19T05:20:09.884Z,100.00
2019-03-19T05:22:36.196Z,100.00
2019-03-19T05:25:02.518Z,100.00
2019-03-19T05:27:37.008Z,100.00
2019-03-19T05:29:55.121Z,100.00
2019-03-19T05:32:21.430Z,100.00
2019-03-19T05:34:47.760Z,100.00
2019-03-19T05:37:14.066Z,100.00
2019-03-19T05:39:40.370Z,100.00
2019-03-19T05:42:06.720Z,100.00
2019-03-19T05:44:32.990Z,100.00
2019-03-19T05:46:59.334Z,100.00
2019-03-19T05:49:25.641Z,96.46
2019-03-19T05:51:51.957Z,87.58
2019-03-19T05:54:18.275Z,81.79
2019-03-19T05:56:44.602Z,77.39
2019-03-19T05:59:10.940Z,78.03
2019-03-19T06:01:37.245Z,75.70
2019-03-19T06:04:03.588Z,72.67
2019-03-19T06:06:29.893Z,72.15
2019-03-19T06:08:56.200Z,69.22
2019-03-19T06:11:22.510Z,66.35
2019-03-19T06:13:48.819Z,65.60
2019-03-19T06:16:15.146Z,63.43
2019-03-19T06:18:41.482Z,63.46
2019-03-19T06:21:07.792Z,63.00
2019-03-19T06:23:34.106Z,63.16
2019-03-19T06:26:00.413Z,62.13
2019-03-19T06:28:26.728Z,61.70
2019-03-19T06:30:53.036Z,60.87
2019-03-19T06:33:19.341Z,60.55
2019-03-19T06:35:45.656Z,61.38
2019-03-19T06:38:11.965Z,64.93
2019-03-19T06:40:38.277Z,64.44
2019-03-19T06:43:04.589Z,63.37
2019-03-19T06:45:30.921Z,61.68
2019-03-19T06:47:57.227Z,60.72
2019-03-19T06:50:23.533Z,60.02
2019-03-19T06:52:49.845Z,59.50
2019-03-19T06:55:16.143Z,59.49
2019-03-19T06:57:42.464Z,58.57
2019-03-19T07:00:08.755Z,58.09
2019-03-19T07:02:35.069Z,57.95
2019-03-19T07:05:01.382Z,58.12
2019-03-19T07:07:27.744Z,57.68
2019-03-19T07:09:54.054Z,57.56
2019-03-19T07:12:20.394Z,58.45
2019-03-19T07:14:46.716Z,56.83
2019-03-19T07:17:13.041Z,57.66
2019-03-19T07:19:39.396Z,58.10
2019-03-19T07:22:05.702Z,58.28
2019-03-19T07:24:32.011Z,57.78
2019-03-19T07:26:58.352Z,57.09
2019-03-19T07:29:24.640Z,57.33
2019-03-19T07:31:50.949Z,57.14
2019-03-19T07:34:30.258Z,57.11
2019-03-19T07:36:56.570Z,55.73
2019-03-19T07:39:22.883Z,55.27
2019-03-19T07:41:49.190Z,55.69
2019-03-19T07:44:15.495Z,55.07
2019-03-19T07:46:41.805Z,54.82
2019-03-19T07:49:08.113Z,55.29
2019-03-19T07:51:34.439Z,55.36
2019-03-19T07:54:00.760Z,55.25
2019-03-19T07:56:27.074Z,54.25
2019-03-19T07:58:53.381Z,54.32
2019-03-19T08:01:19.691Z,53.81
2019-03-19T08:03:46.004Z,53.38
2019-03-19T08:06:12.343Z,53.24
2019-03-19T08:08:38.653Z,53.06
2019-03-19T08:11:04.963Z,52.33
2019-03-19T08:13:31.302Z,51.62
2019-03-19T08:15:57.673Z,51.22
2019-03-19T08:18:24.043Z,51.61
2019-03-19T08:20:50.361Z,51.47
2019-03-19T08:23:16.670Z,51.00
2019-03-19T08:25:42.981Z,50.89
2019-03-19T08:28:09.288Z,51.03
2019-03-19T08:30:35.594Z,49.77
2019-03-19T08:33:01.903Z,50.37
2019-03-19T08:35:29.263Z,49.58
2019-03-19T08:40:45.737Z,48.51
2019-03-19T08:43:12.046Z,48.49
2019-03-19T08:45:38.353Z,48.59
2019-03-19T08:48:04.661Z,48.59
2019-03-19T08:50:30.980Z,48.47
2019-03-19T08:52:57.302Z,48.31
2019-03-19T08:55:23.602Z,48.50
2019-03-19T08:57:49.908Z,47.90
2019-03-19T09:00:16.222Z,47.46
2019-03-19T09:02:42.523Z,47.37
2019-03-19T09:05:08.837Z,47.35
2019-03-19T09:07:35.139Z,46.93
2019-03-19T09:10:01.452Z,46.76
2019-03-19T09:12:27.764Z,46.19
2019-03-19T09:14:54.075Z,45.90
2019-03-19T09:17:20.385Z,46.42
2019-03-19T09:19:46.693Z,45.99
2019-03-19T09:22:13.007Z,45.85
2019-03-19T09:24:39.332Z,45.46
2019-03-19T09:27:07.790Z,44.67
2019-03-19T09:29:34.098Z,44.65
2019-03-19T09:32:00.406Z,44.16
2019-03-19T09:34:26.722Z,43.88
2019-03-19T09:36:57.239Z,44.17
2019-03-19T09:39:19.385Z,43.71
2019-03-19T09:41:45.701Z,43.39
2019-03-19T09:44:12.012Z,43.25
2019-03-19T09:46:38.341Z,43.44
2019-03-19T09:49:04.649Z,42.88
2019-03-19T09:51:30.965Z,43.00
2019-03-19T09:53:57.267Z,42.98
2019-03-19T09:56:23.575Z,42.30
2019-03-19T09:58:49.888Z,41.64
2019-03-19T10:01:16.261Z,41.60
2019-03-19T10:03:51.548Z,41.25
2019-03-19T10:06:17.437Z,41.30
2019-03-19T10:08:43.806Z,41.36
2019-03-19T10:11:10.168Z,40.70
2019-03-19T10:13:47.612Z,39.96
2019-03-19T10:16:13.945Z,40.45
2019-03-19T10:18:40.248Z,40.25
2019-03-19T10:21:06.563Z,40.14
2019-03-19T10:23:32.962Z,39.80
2019-03-19T10:26:00.259Z,39.32
2019-03-19T10:28:26.568Z,39.18
2019-03-19T10:30:54.037Z,38.93
2019-03-19T10:33:21.340Z,39.31
2019-03-19T10:35:47.643Z,39.19
2019-03-19T10:38:17.208Z,38.67
2019-03-19T10:40:43.518Z,38.60
2019-03-19T10:43:09.831Z,38.08
2019-03-19T10:45:36.129Z,37.99
2019-03-19T10:48:02.455Z,37.53
2019-03-19T10:50:28.764Z,37.45
2019-03-19T10:52:55.098Z,37.14
2019-03-19T10:55:21.419Z,36.93
2019-03-19T10:57:47.734Z,37.23
2019-03-19T11:00:14.131Z,37.28
2019-03-19T11:02:41.852Z,36.46
2019-03-19T11:05:08.220Z,36.38
2019-03-19T11:07:34.492Z,36.55
2019-03-19T11:10:00.801Z,36.22
2019-03-19T11:12:27.117Z,36.04
2019-03-19T11:14:53.468Z,35.46
2019-03-19T11:17:19.782Z,35.78
2019-03-19T11:19:46.095Z,35.82
2019-03-19T11:22:12.403Z,35.66
2019-03-19T11:24:38.718Z,35.10
2019-03-19T11:27:05.023Z,35.36
2019-03-19T11:29:31.329Z,35.06
2019-03-19T11:31:57.658Z,35.09
2019-03-19T11:34:23.959Z,35.11
2019-03-19T11:36:57.794Z,35.41
2019-03-19T11:39:16.581Z,34.98
2019-03-19T11:41:42.898Z,34.94
2019-03-19T11:44:09.211Z,34.64
2019-03-19T11:46:35.551Z,34.28
2019-03-19T11:49:01.837Z,34.37
2019-03-19T11:51:28.150Z,34.40
2019-03-19T11:53:54.495Z,34.46
2019-03-19T11:56:20.905Z,34.67
2019-03-19T11:58:47.204Z,34.56
2019-03-19T12:01:13.510Z,34.35
2019-03-19T12:03:39.843Z,34.30
2019-03-19T12:06:06.147Z,34.13
2019-03-19T12:08:32.455Z,34.15
2019-03-19T12:10:58.763Z,33.99
2019-03-19T12:13:25.066Z,33.75
2019-03-19T12:15:51.369Z,34.05
2019-03-19T12:18:17.680Z,34.00
2019-03-19T12:20:44.020Z,33.58
2019-03-19T12:23:10.288Z,33.69
2019-03-19T12:25:36.592Z,33.45
2019-03-19T12:28:02.905Z,34.11
2019-03-19T12:30:29.211Z,34.04
2019-03-19T12:32:55.602Z,33.77
2019-03-19T12:35:21.916Z,33.99
2019-03-19T12:37:48.230Z,33.76
2019-03-19T12:40:14.546Z,33.68
2019-03-19T12:42:40.853Z,33.55
2019-03-19T12:45:07.162Z,33.74
2019-03-19T12:47:33.468Z,33.46
2019-03-19T12:49:59.825Z,33.32
2019-03-19T12:52:26.089Z,33.59
2019-03-19T12:54:52.588Z,33.63
2019-03-19T12:57:18.895Z,33.84
2019-03-19T12:59:45.368Z,33.52
2019-03-19T13:02:11.677Z,33.97
2019-03-19T13:04:37.985Z,33.84
2019-03-19T13:07:04.302Z,34.13
2019-03-19T13:09:30.611Z,34.19
2019-03-19T13:11:56.915Z,33.83
2019-03-19T13:14:23.225Z,33.92
2019-03-19T13:16:49.537Z,33.79
2019-03-19T13:19:15.910Z,33.40
2019-03-19T13:21:42.216Z,33.90
2019-03-19T13:24:08.525Z,33.79
2019-03-19T13:26:34.853Z,33.54
2019-03-19T13:29:01.170Z,33.57
2019-03-19T13:31:27.475Z,33.56
2019-03-19T13:33:53.786Z,33.59
2019-03-19T13:36:20.150Z,33.47
2019-03-19T13:38:46.463Z,34.06
2019-03-19T13:41:12.765Z,34.00
2019-03-19T13:43:39.101Z,34.15
2019-03-19T13:46:05.409Z,34.10
2019-03-19T13:48:31.760Z,33.84
2019-03-19T13:50:58.068Z,33.83
2019-03-19T13:53:24.376Z,33.88
2019-03-19T13:55:50.688Z,33.77
2019-03-19T13:58:16.991Z,34.03
2019-03-19T14:00:43.299Z,33.98
2019-03-19T14:03:09.604Z,33.97
2019-03-19T14:05:35.913Z,34.07
2019-03-19T14:08:02.254Z,34.13
2019-03-19T14:10:28.565Z,34.36
2019-03-19T14:12:54.867Z,34.45
2019-03-19T14:15:21.177Z,34.41
2019-03-19T14:17:47.489Z,34.38
2019-03-19T14:20:13.808Z,34.79
2019-03-19T14:22:40.119Z,34.48
2019-03-19T14:25:06.445Z,34.56
2019-03-19T14:27:32.757Z,34.84
2019-03-19T14:29:59.069Z,34.90
2019-03-19T14:32:25.382Z,34.73
2019-03-19T14:34:51.697Z,34.85
2019-03-19T14:37:18.011Z,34.53
2019-03-19T14:39:44.312Z,34.64
2019-03-19T14:42:10.628Z,34.31
2019-03-19T14:44:36.935Z,34.44
2019-03-19T14:47:03.270Z,34.61
2019-03-19T14:49:29.576Z,34.56
2019-03-19T14:51:55.885Z,34.54
2019-03-19T14:54:22.192Z,34.49
2019-03-19T14:56:48.500Z,34.32
2019-03-19T14:59:14.814Z,34.35
2019-03-19T15:01:41.124Z,34.16
2019-03-19T15:04:07.483Z,34.04
2019-03-19T15:06:33.853Z,33.94
2019-03-19T15:09:00.196Z,33.73
2019-03-19T15:11:26.511Z,33.98
2019-03-19T15:13:55.121Z,33.89
2019-03-19T15:16:19.308Z,33.83
2019-03-19T15:18:45.628Z,33.76
2019-03-19T15:21:11.956Z,33.93
2019-03-19T15:23:38.261Z,33.86
2019-03-19T15:26:04.574Z,33.84
2019-03-19T15:28:30.884Z,33.75
2019-03-19T15:30:57.196Z,34.13
2019-03-19T15:33:23.506Z,34.56
2019-03-19T15:38:35.148Z,35.69
2019-03-19T15:41:01.459Z,36.14
2019-03-19T15:43:27.765Z,36.56
2019-03-19T15:45:54.099Z,36.79
2019-03-19T15:48:20.410Z,37.11
2019-03-19T15:50:46.744Z,37.27
2019-03-19T15:53:13.053Z,37.59
2019-03-19T15:55:39.358Z,37.63
2019-03-19T15:58:05.668Z,37.83
2019-03-19T16:00:31.980Z,37.98
2019-03-19T16:02:58.293Z,38.05
2019-03-19T16:05:24.609Z,38.13
2019-03-19T16:07:51.131Z,38.33
2019-03-19T16:10:17.446Z,38.40
2019-03-19T16:12:43.806Z,38.36
2019-03-19T16:15:10.112Z,38.50
2019-03-19T16:17:36.415Z,38.54
2019-03-19T16:20:02.723Z,38.60
2019-03-19T16:22:29.031Z,38.68
2019-03-19T16:24:55.341Z,38.84
2019-03-19T16:27:21.698Z,38.82
2019-03-19T16:29:47.964Z,38.99
2019-03-19T16:32:14.264Z,39.07
2019-03-19T16:34:40.890Z,39.08
2019-03-19T16:37:07.218Z,39.17
2019-03-19T16:39:35.231Z,39.29
2019-03-19T16:42:00.020Z,39.50
2019-03-19T16:44:26.364Z,39.32
2019-03-19T16:46:52.679Z,39.42
2019-03-19T16:49:18.987Z,39.45
2019-03-19T16:51:45.296Z,39.57
2019-03-19T16:54:11.695Z,39.70
2019-03-19T16:56:38.015Z,39.76
2019-03-19T16:59:04.317Z,39.75
2019-03-19T17:01:30.628Z,39.86
2019-03-19T17:03:57.003Z,39.70
2019-03-19T17:06:23.269Z,39.88
2019-03-19T17:08:49.572Z,39.96
2019-03-19T17:11:15.904Z,40.22
2019-03-19T17:13:42.355Z,40.12
2019-03-19T17:16:08.655Z,40.25
2019-03-19T17:18:34.976Z,40.26
2019-03-19T17:21:01.295Z,40.39
2019-03-19T17:23:27.607Z,40.40
2019-03-19T17:25:53.915Z,40.55
2019-03-19T17:28:22.728Z,40.63
2019-03-19T17:30:46.535Z,40.62
2019-03-19T17:33:12.849Z,40.72
2019-03-19T17:35:39.181Z,40.81
2019-03-19T17:38:05.508Z,40.95
2019-03-19T17:40:41.317Z,40.85
2019-03-19T17:43:00.417Z,41.10
2019-03-19T17:45:26.728Z,41.11
2019-03-19T17:47:53.049Z,41.16
2019-03-19T17:50:19.366Z,41.11
2019-03-19T17:52:45.744Z,41.24
2019-03-19T17:55:11.996Z,41.34
2019-03-19T17:57:38.317Z,41.25
2019-03-19T18:00:04.750Z,42.47
2019-03-19T18:02:31.057Z,43.28
2019-03-19T18:04:57.370Z,43.02
2019-03-19T18:07:23.682Z,42.83
2019-03-19T18:09:49.999Z,42.67
2019-03-19T18:12:16.308Z,42.67
2019-03-19T18:14:42.661Z,42.63
2019-03-19T18:17:08.942Z,45.02
2019-03-19T18:19:35.250Z,45.61
2019-03-19T18:22:01.595Z,45.42
2019-03-19T18:24:27.910Z,44.95
2019-03-19T18:26:54.444Z,45.19
2019-03-19T18:29:20.764Z,44.60
2019-03-19T18:31:47.136Z,44.20
2019-03-19T18:34:13.406Z,43.82
2019-03-19T18:36:39.718Z,43.60
2019-03-19T18:39:06.026Z,43.61
2019-03-19T18:41:32.715Z,43.32
2019-03-19T18:43:59.226Z,43.50
2019-03-19T18:46:25.553Z,43.50
2019-03-19T18:48:51.871Z,43.48
2019-03-19T18:51:18.188Z,43.59
2019-03-19T18:53:48.441Z,43.60
2019-03-19T18:56:11.962Z,43.79
2019-03-19T18:58:38.244Z,43.96
2019-03-19T19:01:04.557Z,47.60
2019-03-19T19:03:30.929Z,47.63
2019-03-19T19:05:57.237Z,46.56
2019-03-19T19:08:23.557Z,46.33
2019-03-19T19:10:49.863Z,46.53
2019-03-19T19:13:16.175Z,50.71
2019-03-19T19:15:42.485Z,52.11
2019-03-19T19:18:08.871Z,52.15
2019-03-19T19:20:35.186Z,52.55
2019-03-19T19:23:02.970Z,51.58
2019-03-19T19:25:27.807Z,50.75
2019-03-19T19:27:54.114Z,51.21
2019-03-19T19:30:20.421Z,50.74
2019-03-19T19:32:46.732Z,50.87
2019-03-19T19:35:13.046Z,52.14
2019-03-19T19:37:39.381Z,52.43
2019-03-19T19:40:05.788Z,52.73
2019-03-19T19:42:32.095Z,52.99
2019-03-19T19:44:58.400Z,55.82
2019-03-19T19:47:24.714Z,56.47
2019-03-19T19:49:51.016Z,56.85
2019-03-19T19:52:17.324Z,57.70
2019-03-19T19:54:43.629Z,58.90
2019-03-19T19:57:11.193Z,60.23
2019-03-19T19:59:36.273Z,61.51
2019-03-19T20:02:02.637Z,62.92
2019-03-19T20:04:28.929Z,64.30
2019-03-19T20:06:55.308Z,65.66
2019-03-19T20:09:21.615Z,67.04
2019-03-19T20:11:47.937Z,68.37
2019-03-19T20:14:14.368Z,69.57
2019-03-19T20:16:40.707Z,70.68
2019-03-19T20:19:07.026Z,71.78
2019-03-19T20:21:33.374Z,72.84
2019-03-19T20:23:59.717Z,73.88
2019-03-19T20:26:26.029Z,74.82
2019-03-19T20:28:52.395Z,75.80
2019-03-19T20:31:18.705Z,76.75
2019-03-19T20:33:45.021Z,77.51
2019-03-19T20:36:11.337Z,76.95
2019-03-19T20:38:37.644Z,77.57
2019-03-19T20:41:03.957Z,78.89
2019-03-19T20:43:30.292Z,80.06
2019-03-19T20:45:56.598Z,81.11
2019-03-19T20:48:22.906Z,82.13
2019-03-19T20:50:49.214Z,82.97
2019-03-19T20:53:15.523Z,83.70
2019-03-19T20:55:41.828Z,84.55
2019-03-19T20:58:08.142Z,85.37
2019-03-19T21:00:34.444Z,86.26
2019-03-19T21:03:00.747Z,86.86
2019-03-19T21:05:27.053Z,87.98
2019-03-19T21:07:53.360Z,88.57
2019-03-19T21:10:19.668Z,89.24
2019-03-19T21:12:45.977Z,89.57
2019-03-19T21:15:12.292Z,90.09
2019-03-19T21:17:38.598Z,90.60
2019-03-19T21:20:04.904Z,91.35
2019-03-19T21:22:31.227Z,91.74
2019-03-19T21:24:57.546Z,92.20
2019-03-19T21:27:24.039Z,92.64
2019-03-19T21:29:52.271Z,92.94
2019-03-19T21:32:16.603Z,93.11
2019-03-19T21:34:42.912Z,93.43
2019-03-19T21:37:09.265Z,93.44
2019-03-19T21:39:35.584Z,93.71
2019-03-19T21:42:01.893Z,94.06
2019-03-19T21:44:28.221Z,94.44
2019-03-19T21:46:54.530Z,94.70
2019-03-19T21:49:20.855Z,94.83
2019-03-19T21:51:47.161Z,95.00
2019-03-19T21:54:13.543Z,95.14
2019-03-19T21:56:39.868Z,95.03
2019-03-19T21:59:06.214Z,95.30
2019-03-19T22:01:32.519Z,95.38
2019-03-19T22:04:03.088Z,95.37
2019-03-19T22:06:25.147Z,95.63
2019-03-19T22:08:51.453Z,95.67
2019-03-19T22:11:17.775Z,95.95
2019-03-19T22:13:44.087Z,96.00
2019-03-19T22:16:10.393Z,96.18
2019-03-19T22:18:36.703Z,96.12
2019-03-19T22:21:03.009Z,95.98
2019-03-19T22:23:29.312Z,96.03
2019-03-19T22:25:55.643Z,96.09
2019-03-19T22:28:21.960Z,96.09
2019-03-19T22:30:48.267Z,96.32
2019-03-19T22:33:14.575Z,96.49
2019-03-19T22:35:40.903Z,96.51
2019-03-19T22:38:07.209Z,96.52
2019-03-19T22:40:33.512Z,96.59
2019-03-19T22:42:59.827Z,96.46
2019-03-19T22:45:26.134Z,96.59
2019-03-19T22:47:52.439Z,96.76
2019-03-19T22:50:18.750Z,96.71
2019-03-19T22:52:45.076Z,96.70
2019-03-19T22:55:11.383Z,96.76
2019-03-19T22:57:37.692Z,96.89
2019-03-19T23:00:04.013Z,96.97
2019-03-19T23:02:30.319Z,97.04
2019-03-19T23:04:56.671Z,96.89
2019-03-19T23:07:22.980Z,96.81
2019-03-19T23:09:49.345Z,97.03
2019-03-19T23:12:15.621Z,97.21
2019-03-19T23:14:41.927Z,97.39
2019-03-19T23:17:08.232Z,97.55
2019-03-19T23:19:34.539Z,97.61
2019-03-19T23:22:00.847Z,97.73
2019-03-19T23:24:27.156Z,97.74
2019-03-19T23:26:53.461Z,97.64
2019-03-19T23:29:19.766Z,97.76
2019-03-19T23:31:46.073Z,97.74
2019-03-19T23:34:12.381Z,97.73
2019-03-19T23:36:38.690Z,97.63
2019-03-19T23:39:04.996Z,97.72
2019-03-19T23:41:31.326Z,97.89
2019-03-19T23:43:57.633Z,98.03
2019-03-19T23:46:23.934Z,97.99
2019-03-19T23:48:50.244Z,97.97
2019-03-19T23:51:16.549Z,98.12
2019-03-19T23:53:42.855Z,98.20
2019-03-19T23:56:09.157Z,98.24
2019-03-19T23:58:35.468Z,98.28
